Flight Track Log - Related Links

Times and Time Zones

All times are in EDT time to prevent confusion due to time zone crossing. See the DAL1103 flight status page for this flight to view local times or setup timezone preferences in your user account.

Time Position Orientation Groundspeed Altitude Reporting Facility
EDT Latitude Longitude Course Direction KTS MPH feet Rate Location/Type
Tue 10:19:32 AM 44.8903 -93.3181 157° South 211 243 2,900  Level Minneapolis Center
Tue 10:20:34 AM 44.8456 -93.3967 231° Southwest 269 310 5,300 2,419 Climbing Minneapolis Center
Tue 10:21:36 AM 44.7731 -93.4297 198° South 293 337 7,900 2,371 Climbing Minneapolis Center
Tue 10:22:38 AM 44.6936 -93.3964 163° South 314 361 10,200 1,790 Climbing Minneapolis Center
Tue 10:23:00 AM 44.2886 -92.9342 150° Southeast  Level FlightAware Approximate
Tue 10:23:40 AM 44.6014 -93.3044 145° Southeast 351 404 11,600  Level Minneapolis Center
Tue 10:24:00 AM 44.1741 -92.8711 157° South  Level FlightAware Approximate
Tue 10:24:42 AM 44.5103 -93.2150 145° Southeast 405 466 12,900  Level Minneapolis Center
Tue 10:25:44 AM 44.4139 -93.1194 145° Southeast 426 490 15,000 1,935 Climbing Minneapolis Center
Tue 10:26:46 AM 44.3156 -93.0214 144° Southeast 431 496 16,900 1,935 Climbing Minneapolis Center
Tue 10:27:48 AM 44.1925 -92.9017 145° Southeast 448 516 19,000 1,742 Climbing Minneapolis Center
Tue 10:28:50 AM 44.0850 -92.8036 147° Southeast 459 528 20,500 1,403 Climbing Minneapolis Center
Tue 10:29:52 AM 43.9661 -92.7242 154° Southeast 471 542 21,900 1,296 Climbing Minneapolis Center
Tue 10:30:55 AM 43.8469 -92.6417 153° Southeast 478 550 23,200 1,296 Climbing Minneapolis Center
Tue 10:31:57 AM 43.7158 -92.5850 163° South 489 563 24,600 1,355 Climbing Minneapolis Center
Tue 10:32:59 AM 43.5847 -92.5647 174° South 478 550 26,000 1,523 Climbing Minneapolis Center
Tue 10:34:07 AM 43.4269 -92.5406 174° South 477 549 27,900 1,385 Climbing Chicago Center
Tue 10:35:09 AM 43.2975 -92.5197 173° South 473 544 29,000 532 Climbing Chicago Center
Tue 10:36:11 AM 43.1725 -92.5000 173° South 460 529 29,000  Level Chicago Center
Tue 10:37:13 AM 43.0203 -92.4753 173° South 460 529 29,000  Level Chicago Center
Tue 10:38:15 AM 42.8900 -92.4536 173° South 472 543 29,000  Level Chicago Center
Tue 10:39:12 AM 42.7633 -92.4344 174° South 471 542 29,000  Level Minneapolis Center
Tue 10:40:20 AM 42.6344 -92.4133 173° South 469 540 29,000  Level Chicago Center
Tue 10:41:16 AM 42.5136 -92.3608 162° South 473 544 29,000  Level Minneapolis Center
Tue 10:42:18 AM 42.4078 -92.2503 142° Southeast 483 556 29,000  Level Minneapolis Center
Tue 10:43:20 AM 42.2903 -92.1706 153° Southeast 483 556 29,000  Level Minneapolis Center
Tue 10:44:22 AM 42.1422 -92.1111 163° South 475 547 29,000  Level Minneapolis Center
Tue 10:45:24 AM 42.0164 -92.0728 167° South 471 542 29,000  Level Minneapolis Center
Tue 10:46:32 AM 41.8908 -92.0228 163° South 469 540 29,000  Level Chicago Center
Tue 10:47:35 AM 41.7422 -91.9661 164° South 466 536 29,000  Level Chicago Center
Tue 10:48:37 AM 41.6186 -91.9200 164° South 465 535 29,000  Level Chicago Center
Tue 10:49:39 AM 41.4947 -91.8742 165° South 465 535 29,000  Level Chicago Center
Tue 10:50:41 AM 41.3708 -91.8292 165° South 464 534 29,000 242 Level Chicago Center
Tue 10:51:43 AM 41.2281 -91.7758 164° South 464 534 29,500 1,016 Climbing Chicago Center
Tue 10:52:45 AM 41.1033 -91.7300 165° South 466 536 31,100 1,258 Climbing Chicago Center
Tue 10:53:47 AM 40.9828 -91.6883 165° South 456 525 32,100 823 Climbing Chicago Center
Tue 10:54:49 AM 40.8639 -91.6444 164° South 450 518 32,800 435 Climbing Chicago Center
Tue 10:55:51 AM 40.7456 -91.6014 165° South 447 514 33,000 97 Climbing Chicago Center
Tue 10:56:53 AM 40.6056 -91.5344 160° South 451 519 33,000  Level Chicago Center
Tue 10:57:55 AM 40.5053 -91.4317 142° Southeast 456 525 33,000  Level Chicago Center
Tue 10:58:50 AM 40.4256 -91.3453 140° Southeast 460 529 33,000  Level Kansas City Center
Tue 10:59:54 AM 40.3067 -91.2156 140° Southeast 465 535 33,000  Level Kansas City Center
Tue 11:00:56 AM 40.2042 -91.1011 140° Southeast 472 543 33,000  Level Kansas City Center
Tue 11:01:58 AM 40.1053 -90.9886 139° Southeast 474 545 33,000  Level Kansas City Center
Tue 11:04:03 AM 39.9078 -90.7667 139° Southeast 473 544 33,000  Level Kansas City Center
Tue 11:05:05 AM 39.7853 -90.6303 139° Southeast 481 554 33,000  Level Kansas City Center
Tue 11:06:07 AM 39.6839 -90.5164 139° Southeast 471 542 33,000  Level Kansas City Center
Tue 11:07:09 AM 39.5839 -90.4053 139° Southeast 471 542 33,000  Level Kansas City Center
Tue 11:08:11 AM 39.4833 -90.2931 139° Southeast 472 543 33,000  Level Kansas City Center
Tue 11:09:13 AM 39.3808 -90.1822 140° Southeast 475 547 33,000  Level Kansas City Center
Tue 11:10:15 AM 39.2781 -90.0711 140° Southeast 476 548 33,000  Level Kansas City Center
Tue 11:11:17 AM 39.1686 -89.9542 140° Southeast 481 554 33,000  Level Kansas City Center
Tue 11:12:20 AM 39.0672 -89.8422 139° Southeast 477 549 33,000  Level Kansas City Center
Tue 11:13:22 AM 38.9633 -89.7319 140° Southeast 482 555 33,000  Level Kansas City Center
Tue 11:14:24 AM 38.8483 -89.6133 141° Southeast 485 558 33,000  Level Kansas City Center
Tue 11:15:26 AM 38.7442 -89.5031 140° Southeast 486 559 33,000  Level Kansas City Center
Tue 11:16:28 AM 38.6236 -89.3733 140° Southeast 482 555 33,000  Level Kansas City Center
Tue 11:17:30 AM 38.5236 -89.2708 141° Southeast 483 556 33,000  Level Kansas City Center
Tue 11:18:32 AM 38.4211 -89.1619 140° Southeast 483 556 33,000  Level Kansas City Center
Tue 11:19:34 AM 38.2944 -89.0533 146° Southeast 475 547 33,000  Level Kansas City Center
Tue 11:20:36 AM 38.1806 -88.9650 149° Southeast 476 548 33,000  Level Kansas City Center
Tue 11:21:39 AM 38.0722 -88.8739 146° Southeast 475 547 33,000  Level Kansas City Center
Tue 11:22:41 AM 37.9614 -88.7844 148° Southeast 473 544 33,000  Level Kansas City Center
Tue 11:23:43 AM 37.8464 -88.6900 147° Southeast 473 544 33,000  Level Kansas City Center
Tue 11:24:45 AM 37.7353 -88.6014 148° Southeast 467 537 33,000  Level Kansas City Center
Tue 11:25:47 AM 37.6222 -88.5094 147° Southeast 476 548 33,000  Level Kansas City Center
Tue 11:26:42 AM 37.4992 -88.4156 149° Southeast 477 549 33,000  Level Memphis Center
Tue 11:27:44 AM 37.3817 -88.3397 153° Southeast 477 549 33,000  Level Memphis Center
Tue 11:28:46 AM 37.2644 -88.2658 153° Southeast 475 547 33,000  Level Memphis Center
Tue 11:29:48 AM 37.1461 -88.1906 153° Southeast 475 547 33,000  Level Memphis Center
Tue 11:30:50 AM 37.0306 -88.1186 154° Southeast 468 539 33,000  Level Memphis Center
Tue 11:31:52 AM 36.9094 -88.0442 154° Southeast 465 535 33,000  Level Memphis Center
Tue 11:32:54 AM 36.7939 -87.9692 153° Southeast 465 535 33,000  Level Memphis Center
Tue 11:33:56 AM 36.6578 -87.8828 153° Southeast 465 535 33,000  Level Memphis Center
Tue 11:34:58 AM 36.5414 -87.8092 153° Southeast 465 535 33,000  Level Memphis Center
Tue 11:36:01 AM 36.4247 -87.7364 153° Southeast 465 535 33,000  Level Memphis Center
Tue 11:37:03 AM 36.3086 -87.6642 153° Southeast 465 535 33,000  Level Memphis Center
Tue 11:38:05 AM 36.1919 -87.5922 154° Southeast 465 535 33,000  Level Memphis Center
Tue 11:39:07 AM 36.0764 -87.5217 154° Southeast 465 535 33,000  Level Memphis Center
Tue 11:40:09 AM 35.9406 -87.4386 154° Southeast 465 535 33,000  Level Memphis Center
Tue 11:41:11 AM 35.8233 -87.3669 154° Southeast 465 535 33,000  Level Memphis Center
Tue 11:42:13 AM 35.7064 -87.2958 154° Southeast 465 535 33,000  Level Memphis Center
Tue 11:43:15 AM 35.5886 -87.2244 154° Southeast 466 536 33,000  Level Memphis Center
Tue 11:44:17 AM 35.4708 -87.1528 154° Southeast 467 537 33,000  Level Memphis Center
Tue 11:45:19 AM 35.3375 -87.0714 154° Southeast 467 537 33,000  Level Memphis Center
Tue 11:46:22 AM 35.2211 -87.0011 154° Southeast 467 537 33,000  Level Memphis Center
Tue 11:47:24 AM 35.1042 -86.9297 153° Southeast 467 537 33,000  Level Memphis Center
Tue 11:48:26 AM 34.9861 -86.8597 154° Southeast 468 539 33,000  Level Memphis Center
Tue 11:49:28 AM 34.8689 -86.7881 153° Southeast 468 539 33,000  Level Memphis Center
Tue 11:50:30 AM 34.7525 -86.7197 154° Southeast 466 536 33,000  Level Memphis Center
Tue 11:51:32 AM 34.6364 -86.6522 154° Southeast 464 534 33,000  Level Memphis Center
Tue 11:52:34 AM 34.4975 -86.5703 154° Southeast 463 533 33,000  Level Memphis Center
Tue 11:53:36 AM 34.3806 -86.5017 154° Southeast 462 532 33,000  Level Memphis Center
Tue 11:54:39 AM 34.2644 -86.4353 155° Southeast 462 532 33,000  Level Memphis Center
Tue 11:55:41 AM 34.1467 -86.3672 154° Southeast 463 533 33,000  Level Memphis Center
Tue 11:56:19 AM 34.0736 -86.3233 154° Southeast 462 532 33,000  Level Atlanta Center
Tue 11:57:19 AM 33.9581 -86.2528 153° Southeast 462 532 33,000  Level Atlanta Center
Tue 11:58:19 AM 33.8422 -86.1897 156° South 462 532 33,000  Level Atlanta Center
Tue 11:59:19 AM 33.7264 -86.1244 155° Southeast 462 532 33,000  Level Atlanta Center
Tue 12:00:19 PM 33.6128 -86.0542 153° Southeast 462 532 33,000  Level Atlanta Center
Tue 12:01:19 PM 33.4867 -85.9842 155° Southeast 462 532 33,000  Level Atlanta Center
Tue 12:02:19 PM 33.3728 -85.9194 155° Southeast 457 526 33,000  Level Atlanta Center
Tue 12:03:19 PM 33.2569 -85.8497 153° Southeast 462 532 33,000  Level Atlanta Center
Tue 12:04:19 PM 33.1431 -85.7878 156° South 457 526 33,000  Level Atlanta Center
Tue 12:05:19 PM 33.0250 -85.7236 155° Southeast 457 526 33,000  Level Atlanta Center
Tue 12:06:19 PM 32.9092 -85.6594 155° Southeast 457 526 33,000  Level Atlanta Center
Tue 12:07:19 PM 32.8178 -85.6058 154° Southeast 457 526 33,000  Level Atlanta Center
Tue 12:08:19 PM 32.6936 -85.5344 154° Southeast 457 526 33,000  Level Atlanta Center
Tue 12:09:19 PM 32.5753 -85.4708 156° South 457 526 33,000  Level Atlanta Center
Tue 12:10:19 PM 32.4592 -85.4075 155° Southeast 457 526 33,000  Level Atlanta Center
Tue 12:11:19 PM 32.3472 -85.3369 152° Southeast 457 526 33,000  Level Atlanta Center
Tue 12:12:19 PM 32.2353 -85.2714 154° Southeast 457 526 33,000  Level Atlanta Center
Tue 12:13:19 PM 32.1211 -85.2061 154° Southeast 457 526 33,000  Level Atlanta Center
Tue 12:14:19 PM 32.0108 -85.1436 154° Southeast 450 518 33,000  Level Atlanta Center
Tue 12:15:40 PM 31.8497 -85.0497 154° Southeast 462 532 33,000  Level Jacksonville Center
Tue 12:16:40 PM 31.7403 -84.9789 151° Southeast 455 524 33,000  Level Jacksonville Center
Tue 12:17:39 PM 31.6328 -84.8983 147° Southeast 447 514 33,000  Level Jacksonville Center
Tue 12:18:39 PM 31.5275 -84.8206 148° Southeast 447 514 33,000  Level Jacksonville Center
Tue 12:19:40 PM 31.4203 -84.7403 147° Southeast 452 520 33,000  Level Jacksonville Center
Tue 12:20:39 PM 31.3147 -84.6628 148° Southeast 452 520 33,000  Level Jacksonville Center
Tue 12:21:39 PM 31.2094 -84.5833 147° Southeast 452 520 33,000  Level Jacksonville Center
Tue 12:22:40 PM 31.1019 -84.5061 148° Southeast 452 520 33,000  Level Jacksonville Center
Tue 12:23:40 PM 30.9964 -84.4267 147° Southeast 452 520 33,000  Level Jacksonville Center
Tue 12:24:39 PM 30.8889 -84.3475 148° Southeast 452 520 33,000  Level Jacksonville Center
Tue 12:25:39 PM 30.7831 -84.2686 147° Southeast 452 520 33,000  Level Jacksonville Center
Tue 12:26:39 PM 30.6733 -84.1992 151° Southeast 447 514 33,000  Level Jacksonville Center
Tue 12:27:39 PM 30.5611 -84.1278 151° Southeast 447 514 33,000  Level Jacksonville Center
Tue 12:28:40 PM 30.4636 -84.0661 151° Southeast 447 514 33,000  Level Jacksonville Center
Tue 12:29:39 PM 30.3494 -83.9928 151° Southeast 458 527 33,000  Level Jacksonville Center
Tue 12:30:39 PM 30.2353 -83.9217 152° Southeast 463 533 33,000  Level Jacksonville Center
Tue 12:31:40 PM 30.1231 -83.8531 152° Southeast 463 533 33,000  Level Jacksonville Center
Tue 12:32:39 PM 30.0150 -83.7825 151° Southeast 457 526 33,000  Level Jacksonville Center
Tue 12:33:40 PM 29.9047 -83.7144 152° Southeast 457 526 33,000 545 Level Jacksonville Center
Tue 12:34:40 PM 29.7925 -83.6442 151° Southeast 457 526 34,100 1,008 Climbing Jacksonville Center
Tue 12:35:39 PM 29.6822 -83.5764 152° Southeast 457 526 35,000 450 Climbing Jacksonville Center
Tue 12:36:40 PM 29.5739 -83.5086 151° Southeast 452 520 35,000  Level Jacksonville Center
Tue 12:37:40 PM 29.4636 -83.4389 151° Southeast 452 520 35,000  Level Jacksonville Center
Tue 12:38:39 PM 29.3553 -83.3714 151° Southeast 452 520 35,000  Level Jacksonville Center
Tue 12:39:40 PM 29.2450 -83.3044 152° Southeast 452 520 35,000  Level Jacksonville Center
Tue 12:40:40 PM 29.1386 -83.2372 151° Southeast 446 513 35,000  Level Jacksonville Center
Tue 12:41:40 PM 29.0325 -83.1706 151° Southeast 446 513 35,000  Level Jacksonville Center
Tue 12:42:39 PM 28.9281 -83.1061 152° Southeast 434 499 35,000  Level Jacksonville Center
Tue 12:43:40 PM 28.8197 -83.0347 150° Southeast 439 505 35,000  Level Jacksonville Center
Tue 12:44:40 PM 28.7156 -82.9706 152° Southeast 439 505 35,000  Level Jacksonville Center
Tue 12:45:39 PM 28.5986 -82.8997 152° Southeast 431 496 35,000  Level Jacksonville Center
Tue 12:47:18 PM 28.4289 -82.7931 151° Southeast 435 501 35,000  Level Miami Center
Tue 12:48:20 PM 28.3228 -82.7275 151° Southeast 435 501 35,000  Level Miami Center
Tue 12:49:22 PM 28.2156 -82.6625 152° Southeast 436 502 35,000  Level Miami Center
Tue 12:50:23 PM 28.1072 -82.5981 152° Southeast 438 504 35,000  Level Miami Center
Tue 12:51:25 PM 27.9994 -82.5342 152° Southeast 438 504 35,000  Level Miami Center
Tue 12:52:27 PM 27.8633 -82.4756 159° South 438 504 35,000 -339 Level Miami Center
Tue 12:53:29 PM 27.7500 -82.4350 162° South 437 503 34,300 -1,317 Descending Miami Center
Tue 12:54:30 PM 27.6289 -82.3903 162° South 438 504 32,300 -2,049 Descending Miami Center
Tue 12:55:32 PM 27.5061 -82.3442 162° South 443 510 30,100 -2,081 Descending Miami Center
Tue 12:56:34 PM 27.3936 -82.2603 146° Southeast 462 532 28,000 -2,032 Descending Miami Center
Tue 12:57:36 PM 27.2853 -82.1678 143° Southeast 465 535 25,900 -1,742 Descending Miami Center
Tue 12:58:38 PM 27.1858 -82.0828 143° Southeast 466 536 24,400 -927 Descending Miami Center
Tue 12:59:39 PM 27.0806 -81.9942 143° Southeast 457 526 24,000 -293 Descending Miami Center
Tue 01:00:41 PM 26.9847 -81.9125 143° Southeast 453 521 23,800 -1,113 Descending Miami Center
Tue 01:01:43 PM 26.8858 -81.8289 143° Southeast 449 517 21,700 -2,032 Descending Miami Center
Tue 01:02:45 PM 26.7897 -81.7481 143° Southeast 436 502 19,600 -1,306 Descending Miami Center
Tue 01:03:47 PM 26.6758 -81.6536 143° Southeast 427 491 19,000 -293 Descending Miami Center
Tue 01:04:48 PM 26.5811 -81.5756 144° Southeast 426 490 19,000 -488 Level Miami Center
Tue 01:05:50 PM 26.4858 -81.4958 143° Southeast 423 487 18,000 -1,500 Descending Miami Center
Tue 01:06:52 PM 26.3875 -81.4147 144° Southeast 413 475 15,900 -2,226 Descending Miami Center
Tue 01:07:54 PM 26.3025 -81.3356 140° Southeast 402 463 13,400 -2,758 Descending Miami Center
Tue 01:08:56 PM 26.2431 -81.2269 121° Southeast 382 440 10,200 -1,694 Descending Miami Center
Tue 01:09:58 PM 26.1978 -81.1417 121° Southeast 306 352 9,900 -852 Descending Miami Center
Tue 01:11:31 PM 26.1314 -81.0172 121° Southeast 288 331 8,000 -1,073 Descending Miami Center
Tue 01:12:01 PM 26.1206 -80.9894 113° Southeast 290 334 7,700 -982 Descending Miami Center
Tue 01:12:26 PM 26.1156 -80.9439 97° East 287 330 7,100 -1,258 Descending Miami Center
Tue 01:13:03 PM 26.1119 -80.9017 95° East 286 329 6,400 -904 Descending Miami Center
Tue 01:13:39 PM 26.1058 -80.8364 96° East 280 322 6,000 -581 Descending Miami Center
Tue 01:14:05 PM 26.1022 -80.7992 96° East 279 321 5,800 -625 Descending Miami Center
Tue 01:14:27 PM 26.1003 -80.7664 94° East 278 320 5,500 -677 Descending Miami Center
Tue 01:15:07 PM 26.0958 -80.7144 95° East 275 316 5,100 -448 Descending Miami Center
Tue 01:15:34 PM 26.0914 -80.6775 98° East 253 291 5,000 -97 Descending Miami Center
Tue 01:16:09 PM 26.0886 -80.6400 95° East 243 280 5,000  Level Miami Center
Tue 01:16:41 PM 26.0839 -80.5981 97° East 227 261 5,000  Level Miami Center
Tue 01:17:11 PM 26.0822 -80.5708 94° East 230 265 5,000  Level Miami Center
Tue 01:17:36 PM 26.0794 -80.5372 95° East 228 262 5,000  Level Miami Center
Tue 01:18:12 PM 26.0789 -80.5000 91° East 229 264 5,000  Level Miami Center
Tue 01:18:37 PM 26.0781 -80.4631 91° East 230 265 5,000 -387 Level Miami Center
Tue 01:19:14 PM 26.0783 -80.4292 89° East 229 264 4,600 -1,082 Descending Miami Center
Tue 01:19:38 PM 26.0786 -80.3911 90° East 236 272 3,900 -1,452 Descending Miami Center
Tue 01:20:16 PM 26.0783 -80.3514 90° East 252 290 3,100 -1,475 Descending Miami Center
Tue 01:20:39 PM 26.0775 -80.3097 91° East 263 303 2,400 -1,258 Descending Miami Center
Tue 01:21:18 PM 26.0778 -80.2767 89° East 242 278 1,800 -1,000 Descending Miami Center
Tue 01:21:33 PM 26.0767 -80.2542 93° East 180 207 1,500 -885 Descending Miami Center
Tue 01:22:19 PM 26.0769 -80.2194 89° East 152 175 900 -689 Descending Miami Center
Tue 01:22:34 PM 26.0775 -80.2100 86° East 127 146 800 -581 Descending Miami Center
Tue 01:23:21 PM 26.0767 -80.1786 92° East 143 165 300 -638 Descending Miami Center

Login

Don't have an account? Register now (free) for customized features, flight alerts, and more!